Time;durP1;ratioP1;P1;durP2;ratioP2;P2;SDS_P1;SDS_P2;PMS_P1;PMS_P2;Temp;Humidity;BMP_temperature;BMP_pressure;BME280_temperature;BME280_humidity;BME280_pressure;Samples;Min_cycle;Max_cycle;Signal;HPM_P1;HPM_P2
2021/08/23 00:00:47;;;;;;;6.80;3.83;;;;;;;;;;5079087;28;20016;-48
2021/08/23 00:03:13;;;;;;;6.60;3.47;;;;;;;;;;5074000;28;20048;-49
2021/08/23 00:05:38;;;;;;;8.18;3.65;;;;;;;;;;5075165;28;20044;-46
2021/08/23 00:08:03;;;;;;;7.53;3.53;;;;;;;;;;5076737;28;20077;-49
2021/08/23 00:10:29;;;;;;;3.78;3.10;;;;;;;;;;5076025;28;20411;-48
2021/08/23 00:12:54;;;;;;;3.90;3.20;;;;;;;;;;5074000;28;20063;-50
2021/08/23 00:15:19;;;;;;;3.83;2.50;;;;;;;;;;5077757;28;20112;-50
2021/08/23 00:17:45;;;;;;;3.65;3.05;;;;;;;;;;5069804;28;20021;-50
2021/08/23 00:20:13;;;;;;;6.00;3.58;;;;;;;;;;5082092;28;20654;-51
2021/08/23 00:22:47;;;;;;;5.68;3.78;;;;;;;;;;5076098;28;20063;-46
2021/08/23 00:25:12;;;;;;;8.02;3.92;;;;;;;;;;5074082;28;20020;-44
2021/08/23 00:27:38;;;;;;;4.90;3.05;;;;;;;;;;5075906;28;20025;-48
2021/08/23 00:30:05;;;;;;;5.82;2.72;;;;;;;;;;5073801;28;20433;-49
2021/08/23 00:32:30;;;;;;;5.55;4.10;;;;;;;;;;5068024;28;20492;-45
2021/08/23 00:34:57;;;;;;;17.70;4.38;;;;;;;;;;5075046;28;20038;-44
2021/08/23 00:37:23;;;;;;;5.95;3.85;;;;;;;;;;5080682;28;20020;-46
2021/08/23 00:39:48;;;;;;;6.05;2.63;;;;;;;;;;5076259;28;20024;-46
2021/08/23 00:42:13;;;;;;;7.40;4.82;;;;;;;;;;5072499;28;20021;-44
2021/08/23 00:44:39;;;;;;;4.10;3.45;;;;;;;;;;5078863;28;20620;-48
2021/08/23 00:47:05;;;;;;;4.72;3.72;;;;;;;;;;5075880;28;20140;-45
2021/08/23 00:49:31;;;;;;;3.97;3.47;;;;;;;;;;5079390;28;20056;-44
2021/08/23 00:51:57;;;;;;;6.40;3.55;;;;;;;;;;5071866;28;20108;-47
2021/08/23 00:54:23;;;;;;;4.22;3.08;;;;;;;;;;5074523;28;20488;-45
2021/08/23 00:56:49;;;;;;;6.07;3.40;;;;;;;;;;5075722;28;20012;-44
2021/08/23 00:59:14;;;;;;;3.58;2.78;;;;;;;;;;5071586;28;20146;-44
2021/08/23 01:01:58;;;;;;;4.13;3.17;;;;;;;;;;5074777;28;20044;-44
2021/08/23 01:04:33;;;;;;;4.47;3.05;;;;;;;;;;5072236;28;20048;-46
2021/08/23 01:07:00;;;;;;;5.18;3.25;;;;;;;;;;5072152;28;20688;-44
2021/08/23 01:09:27;;;;;;;7.53;3.92;;;;;;;;;;5071124;28;20090;-44
2021/08/23 01:11:54;;;;;;;4.72;2.83;;;;;;;;;;5071310;28;20033;-44
2021/08/23 01:14:20;;;;;;;3.85;3.28;;;;;;;;;;5070592;28;20031;-44
2021/08/23 01:16:45;;;;;;;4.45;3.30;;;;;;;;;;5066551;28;20016;-49
2021/08/23 01:19:11;;;;;;;3.53;3.13;;;;;;;;;;5072000;28;20097;-45
2021/08/23 01:21:36;;;;;;;5.25;4.15;;;;;;;;;;5072424;28;20491;-44
2021/08/23 01:24:03;;;;;;;4.40;2.92;;;;;;;;;;5075538;28;20089;-44
2021/08/23 01:26:31;;;;;;;5.90;3.60;;;;;;;;;;5072280;28;20025;-43
2021/08/23 01:28:56;;;;;;;4.40;3.78;;;;;;;;;;5070925;28;20033;-44
2021/08/23 01:31:25;;;;;;;4.90;2.50;;;;;;;;;;5069404;28;20156;-46
2021/08/23 01:33:51;;;;;;;5.20;2.90;;;;;;;;;;5070704;28;20053;-44
2021/08/23 01:36:17;;;;;;;11.23;3.47;;;;;;;;;;5074345;28;20429;-44
2021/08/23 01:38:43;;;;;;;3.22;2.63;;;;;;;;;;5072394;28;20468;-44
2021/08/23 01:41:09;;;;;;;4.18;3.20;;;;;;;;;;5072775;28;20020;-46
2021/08/23 01:43:35;;;;;;;9.93;3.75;;;;;;;;;;5073309;28;20056;-44
2021/08/23 01:46:00;;;;;;;4.00;3.33;;;;;;;;;;5073654;28;20427;-46
2021/08/23 01:48:25;;;;;;;4.60;3.35;;;;;;;;;;5072323;28;20036;-47
2021/08/23 01:50:51;;;;;;;6.80;3.88;;;;;;;;;;5069877;28;20028;-45
2021/08/23 01:53:17;;;;;;;4.78;3.33;;;;;;;;;;5074976;28;20039;-44
2021/08/23 01:55:42;;;;;;;2.85;2.22;;;;;;;;;;5070935;28;20029;-44
2021/08/23 01:58:08;;;;;;;4.15;2.83;;;;;;;;;;5071812;28;20017;-44
2021/08/23 02:00:33;;;;;;;4.70;2.97;;;;;;;;;;5069210;28;20023;-44
2021/08/23 02:02:58;;;;;;;3.30;3.00;;;;;;;;;;5071006;28;20049;-44
2021/08/23 02:05:25;;;;;;;4.53;2.78;;;;;;;;;;5072878;28;20021;-47
2021/08/23 02:07:50;;;;;;;5.68;3.35;;;;;;;;;;5075990;28;20020;-48
2021/08/23 02:10:16;;;;;;;5.50;3.40;;;;;;;;;;5074779;28;20130;-50
2021/08/23 02:12:41;;;;;;;3.05;2.75;;;;;;;;;;5074424;28;20032;-47
2021/08/23 02:15:07;;;;;;;5.50;3.38;;;;;;;;;;5075530;28;20031;-45
2021/08/23 02:17:32;;;;;;;3.60;2.85;;;;;;;;;;5069794;28;20158;-44
2021/08/23 02:19:57;;;;;;;8.23;4.38;;;;;;;;;;5070100;28;20110;-43
2021/08/23 02:22:22;;;;;;;4.97;3.65;;;;;;;;;;5075239;28;20020;-45
2021/08/23 02:24:48;;;;;;;4.10;3.22;;;;;;;;;;5071756;28;20028;-43
2021/08/23 02:27:13;;;;;;;4.45;3.20;;;;;;;;;;5071280;28;20766;-44
2021/08/23 02:29:38;;;;;;;3.92;3.53;;;;;;;;;;5075768;28;20024;-48
2021/08/23 02:32:04;;;;;;;3.58;2.63;;;;;;;;;;5075843;28;20016;-44
2021/08/23 02:34:29;;;;;;;9.50;4.47;;;;;;;;;;5073842;28;20029;-42
2021/08/23 02:36:54;;;;;;;3.33;3.00;;;;;;;;;;5075764;28;20023;-45
2021/08/23 02:39:20;;;;;;;9.85;3.53;;;;;;;;;;5079479;28;20267;-49
2021/08/23 02:41:45;;;;;;;5.20;3.78;;;;;;;;;;5075542;28;20518;-45
2021/08/23 02:44:10;;;;;;;5.07;4.03;;;;;;;;;;5076816;28;20198;-49
2021/08/23 02:46:36;;;;;;;3.72;2.92;;;;;;;;;;5075172;28;20030;-45
2021/08/23 02:49:01;;;;;;;4.85;3.80;;;;;;;;;;5079842;28;20020;-43
2021/08/23 02:51:26;;;;;;;5.07;4.57;;;;;;;;;;5078054;28;20024;-42
2021/08/23 02:53:51;;;;;;;5.25;3.97;;;;;;;;;;5078214;28;20021;-43
2021/08/23 02:56:18;;;;;;;3.30;2.92;;;;;;;;;;5078381;28;20016;-46
2021/08/23 02:58:43;;;;;;;3.33;2.33;;;;;;;;;;5076986;28;20016;-47
2021/08/23 03:01:08;;;;;;;3.80;2.95;;;;;;;;;;5072122;28;20027;-46
2021/08/23 03:03:34;;;;;;;4.47;3.60;;;;;;;;;;5078635;28;20126;-45
2021/08/23 03:05:59;;;;;;;5.65;3.97;;;;;;;;;;5082003;28;20495;-45
2021/08/23 03:08:25;;;;;;;4.85;3.50;;;;;;;;;;5077483;28;20024;-44
2021/08/23 03:10:54;;;;;;;4.13;3.17;;;;;;;;;;5076712;28;20427;-43
2021/08/23 03:13:19;;;;;;;4.75;3.28;;;;;;;;;;5077764;28;20598;-45
2021/08/23 03:15:45;;;;;;;4.90;3.40;;;;;;;;;;5073568;28;20047;-43
2021/08/23 03:18:10;;;;;;;3.13;2.83;;;;;;;;;;5074405;28;20024;-44
2021/08/23 03:20:35;;;;;;;3.15;2.58;;;;;;;;;;5077969;28;20031;-48
2021/08/23 03:23:00;;;;;;;4.90;3.28;;;;;;;;;;5075115;28;20039;-46
2021/08/23 03:25:26;;;;;;;3.13;2.80;;;;;;;;;;5077318;28;20042;-44
2021/08/23 03:27:51;;;;;;;5.15;3.17;;;;;;;;;;5080334;28;20028;-45
2021/08/23 03:30:16;;;;;;;3.22;2.38;;;;;;;;;;5071987;28;20021;-45
2021/08/23 03:32:42;;;;;;;10.05;3.40;;;;;;;;;;5078034;28;20077;-45
2021/08/23 03:35:07;;;;;;;4.70;3.92;;;;;;;;;;5077101;28;20027;-43
2021/08/23 03:37:32;;;;;;;6.55;3.88;;;;;;;;;;5080473;28;20543;-45
2021/08/23 03:39:58;;;;;;;4.00;3.22;;;;;;;;;;5078510;28;20021;-44
2021/08/23 03:42:23;;;;;;;3.92;3.33;;;;;;;;;;5074721;28;20016;-44
2021/08/23 03:44:50;;;;;;;6.53;3.95;;;;;;;;;;5073337;28;20574;-44
2021/08/23 03:47:15;;;;;;;10.75;3.58;;;;;;;;;;5079969;28;20029;-45
2021/08/23 03:49:41;;;;;;;4.45;3.42;;;;;;;;;;5076228;28;20020;-45
2021/08/23 03:52:06;;;;;;;5.05;3.72;;;;;;;;;;5073231;28;20058;-44
2021/08/23 03:54:31;;;;;;;4.70;3.17;;;;;;;;;;5070706;28;20039;-44
2021/08/23 03:56:57;;;;;;;4.70;3.30;;;;;;;;;;5074115;28;20099;-49
2021/08/23 03:59:22;;;;;;;3.22;2.45;;;;;;;;;;5071986;28;20474;-51
2021/08/23 04:01:47;;;;;;;3.85;2.95;;;;;;;;;;5076950;28;20013;-46
2021/08/23 04:04:13;;;;;;;3.45;2.55;;;;;;;;;;5077716;28;20056;-45
2021/08/23 04:06:44;;;;;;;4.72;3.03;;;;;;;;;;5075908;28;20479;-48
2021/08/23 04:09:10;;;;;;;3.15;2.40;;;;;;;;;;5073913;28;20042;-47
2021/08/23 04:11:36;;;;;;;4.72;2.90;;;;;;;;;;5075952;28;20020;-46
2021/08/23 04:14:01;;;;;;;5.38;3.65;;;;;;;;;;5074955;28;20033;-44
2021/08/23 04:16:26;;;;;;;3.85;3.40;;;;;;;;;;5076668;28;20114;-47
2021/08/23 04:18:51;;;;;;;4.07;3.65;;;;;;;;;;5077239;28;20497;-47
2021/08/23 04:21:17;;;;;;;3.55;3.05;;;;;;;;;;5070923;28;20020;-45
2021/08/23 04:23:42;;;;;;;4.30;3.67;;;;;;;;;;5076367;28;20055;-45
2021/08/23 04:26:07;;;;;;;6.00;3.30;;;;;;;;;;5069455;28;20499;-48
2021/08/23 04:28:33;;;;;;;4.70;3.20;;;;;;;;;;5070775;28;20024;-42
2021/08/23 04:30:58;;;;;;;3.70;3.20;;;;;;;;;;5074453;28;20015;-45
2021/08/23 04:33:23;;;;;;;15.40;4.25;;;;;;;;;;5070930;28;20025;-44
2021/08/23 04:35:49;;;;;;;5.65;3.72;;;;;;;;;;5075942;28;20442;-46
2021/08/23 04:38:15;;;;;;;4.40;3.03;;;;;;;;;;5078205;28;20488;-42
2021/08/23 04:40:40;;;;;;;3.47;2.70;;;;;;;;;;5074131;28;20480;-43
2021/08/23 04:43:05;;;;;;;9.00;4.50;;;;;;;;;;5071288;28;20661;-44
2021/08/23 04:45:30;;;;;;;5.38;3.85;;;;;;;;;;5075576;28;20028;-43
2021/08/23 04:47:56;;;;;;;5.35;4.47;;;;;;;;;;5070346;28;20052;-44
2021/08/23 04:50:21;;;;;;;5.00;3.40;;;;;;;;;;5071665;28;20408;-43
2021/08/23 04:52:47;;;;;;;3.63;3.10;;;;;;;;;;5075135;28;20162;-46
2021/08/23 04:55:12;;;;;;;4.15;3.75;;;;;;;;;;5074049;28;20016;-48
2021/08/23 04:57:38;;;;;;;4.82;3.95;;;;;;;;;;5072634;28;20491;-49
2021/08/23 05:03:09;;;;;;;6.10;3.92;;;;;;;;;;5076224;28;20050;-47
2021/08/23 05:05:34;;;;;;;5.13;4.10;;;;;;;;;;5075633;28;20098;-47
2021/08/23 05:07:59;;;;;;;4.10;3.70;;;;;;;;;;5071008;28;20393;-45
2021/08/23 05:10:25;;;;;;;4.28;3.33;;;;;;;;;;5070099;28;20472;-46
2021/08/23 05:12:53;;;;;;;4.65;3.95;;;;;;;;;;5071650;28;20069;-43
2021/08/23 05:15:19;;;;;;;4.72;3.97;;;;;;;;;;5073929;28;20495;-45
2021/08/23 05:17:44;;;;;;;7.90;5.85;;;;;;;;;;5069989;28;20031;-48
2021/08/23 05:20:10;;;;;;;9.13;6.20;;;;;;;;;;5075485;28;20521;-47
2021/08/23 05:22:44;;;;;;;25.48;5.10;;;;;;;;;;5074218;28;20074;-51
2021/08/23 05:25:09;;;;;;;8.45;5.55;;;;;;;;;;5071134;28;20474;-47
2021/08/23 05:27:35;;;;;;;13.10;4.80;;;;;;;;;;5075449;28;20051;-43
2021/08/23 05:30:04;;;;;;;8.30;6.38;;;;;;;;;;5077185;28;20035;-45
2021/08/23 05:32:30;;;;;;;7.63;5.60;;;;;;;;;;5074751;28;20035;-42
2021/08/23 05:34:55;;;;;;;5.70;3.97;;;;;;;;;;5071318;28;20103;-45
2021/08/23 05:37:20;;;;;;;9.18;5.82;;;;;;;;;;5071840;28;20025;-43
2021/08/23 05:39:46;;;;;;;5.53;4.97;;;;;;;;;;5075488;28;20016;-46
2021/08/23 05:42:11;;;;;;;4.40;3.97;;;;;;;;;;5074931;28;20031;-47
2021/08/23 05:44:37;;;;;;;8.05;5.18;;;;;;;;;;5072772;28;20020;-42
2021/08/23 05:47:02;;;;;;;8.43;4.45;;;;;;;;;;5064369;28;20051;-43
2021/08/23 05:49:27;;;;;;;12.32;5.63;;;;;;;;;;5075882;28;20017;-46
2021/08/23 05:51:53;;;;;;;13.13;5.85;;;;;;;;;;5071653;28;20028;-44
2021/08/23 05:54:18;;;;;;;11.25;5.60;;;;;;;;;;5072903;28;20111;-41
2021/08/23 05:56:44;;;;;;;13.77;5.57;;;;;;;;;;5073590;28;20065;-42
2021/08/23 05:59:09;;;;;;;7.50;5.22;;;;;;;;;;5071087;28;20023;-42
2021/08/23 06:01:34;;;;;;;8.75;6.38;;;;;;;;;;5072196;28;20044;-45
2021/08/23 06:03:59;;;;;;;8.45;6.07;;;;;;;;;;5075749;28;20447;-45
2021/08/23 06:06:25;;;;;;;11.55;6.85;;;;;;;;;;5073438;28;20024;-45
2021/08/23 06:08:50;;;;;;;6.70;6.00;;;;;;;;;;5072112;28;20062;-44
2021/08/23 06:11:15;;;;;;;8.48;6.75;;;;;;;;;;5072866;28;20040;-42
2021/08/23 06:13:40;;;;;;;8.30;7.00;;;;;;;;;;5072833;28;20026;-46
2021/08/23 06:16:06;;;;;;;73.20;19.73;;;;;;;;;;5073712;28;20024;-45
2021/08/23 06:18:31;;;;;;;15.63;8.48;;;;;;;;;;5072449;28;20577;-43
2021/08/23 06:20:59;;;;;;;22.67;7.47;;;;;;;;;;5069112;28;20020;-45
2021/08/23 06:23:25;;;;;;;13.18;7.13;;;;;;;;;;5074431;28;20503;-44
2021/08/23 06:25:50;;;;;;;16.13;7.43;;;;;;;;;;5073223;28;20027;-45
2021/08/23 06:28:15;;;;;;;16.75;7.47;;;;;;;;;;5070767;28;20024;-42
2021/08/23 06:30:41;;;;;;;7.60;5.38;;;;;;;;;;5072154;28;20020;-44
2021/08/23 06:33:06;;;;;;;12.02;5.88;;;;;;;;;;5071849;28;20020;-44
2021/08/23 06:35:31;;;;;;;13.60;10.95;;;;;;;;;;5071471;28;20502;-46
2021/08/23 06:37:57;;;;;;;12.95;8.70;;;;;;;;;;5074634;28;20047;-44
2021/08/23 06:40:22;;;;;;;24.48;9.88;;;;;;;;;;5072260;28;20024;-42
2021/08/23 06:42:47;;;;;;;21.02;7.35;;;;;;;;;;5068052;28;20020;-45
2021/08/23 06:45:13;;;;;;;27.73;8.13;;;;;;;;;;5073854;28;20024;-46
2021/08/23 06:47:38;;;;;;;13.70;10.27;;;;;;;;;;5071931;28;20107;-48
2021/08/23 06:50:04;;;;;;;14.15;9.30;;;;;;;;;;5071316;28;20021;-44
2021/08/23 06:52:29;;;;;;;16.27;7.07;;;;;;;;;;5074532;28;20048;-46
2021/08/23 06:54:54;;;;;;;13.23;9.90;;;;;;;;;;5070252;28;20036;-45
2021/08/23 06:57:20;;;;;;;17.38;9.50;;;;;;;;;;5071354;28;20017;-47
2021/08/23 06:59:45;;;;;;;14.45;6.47;;;;;;;;;;5071399;28;20067;-46
2021/08/23 07:02:10;;;;;;;10.80;7.75;;;;;;;;;;5077259;28;20666;-41
2021/08/23 07:04:36;;;;;;;12.40;8.30;;;;;;;;;;5074565;28;20029;-43
2021/08/23 07:07:02;;;;;;;10.80;8.02;;;;;;;;;;5076722;28;20067;-42
2021/08/23 07:09:27;;;;;;;13.77;8.27;;;;;;;;;;5074930;28;20028;-42
2021/08/23 07:11:53;;;;;;;21.75;9.70;;;;;;;;;;5068183;28;20426;-40
2021/08/23 07:14:18;;;;;;;12.02;8.05;;;;;;;;;;5075447;28;20062;-41
2021/08/23 07:16:43;;;;;;;16.27;9.20;;;;;;;;;;5071098;28;20102;-42
2021/08/23 07:19:09;;;;;;;17.98;11.60;;;;;;;;;;5069471;28;20024;-43
2021/08/23 07:21:34;;;;;;;8.45;7.65;;;;;;;;;;5075793;28;20066;-43
2021/08/23 07:23:59;;;;;;;16.20;10.02;;;;;;;;;;5073326;28;20106;-43
2021/08/23 07:26:25;;;;;;;21.17;15.20;;;;;;;;;;5074859;28;20032;-47
2021/08/23 07:28:50;;;;;;;25.70;15.18;;;;;;;;;;5074985;28;20145;-44
2021/08/23 07:31:15;;;;;;;22.83;10.43;;;;;;;;;;5078736;28;20031;-41
2021/08/23 07:33:41;;;;;;;13.15;9.20;;;;;;;;;;5073204;28;20445;-40
2021/08/23 07:36:06;;;;;;;11.70;8.10;;;;;;;;;;5075976;28;20020;-43
2021/08/23 07:38:31;;;;;;;19.42;11.75;;;;;;;;;;5075125;28;20031;-40
2021/08/23 07:40:56;;;;;;;18.45;10.32;;;;;;;;;;5075342;28;20111;-44
2021/08/23 07:43:22;;;;;;;20.15;10.00;;;;;;;;;;5079286;28;20021;-42
2021/08/23 07:45:48;;;;;;;7.57;6.57;;;;;;;;;;5076399;28;20462;-40
2021/08/23 07:48:13;;;;;;;8.95;6.05;;;;;;;;;;5073996;28;20024;-40
2021/08/23 07:50:39;;;;;;;12.20;7.60;;;;;;;;;;5069943;28;20017;-40
2021/08/23 07:53:04;;;;;;;8.30;6.75;;;;;;;;;;5077072;28;20032;-40
2021/08/23 07:55:30;;;;;;;12.00;7.43;;;;;;;;;;5072939;28;20017;-40
2021/08/23 07:57:55;;;;;;;11.13;6.75;;;;;;;;;;5077243;28;20406;-40
2021/08/23 08:00:21;;;;;;;5.68;4.35;;;;;;;;;;5069927;28;20516;-42
2021/08/23 08:02:46;;;;;;;7.03;5.53;;;;;;;;;;5078616;28;20055;-40
2021/08/23 08:05:14;;;;;;;6.22;5.60;;;;;;;;;;5074819;28;20161;-41
2021/08/23 08:07:41;;;;;;;8.48;5.22;;;;;;;;;;5073299;28;20099;-40
2021/08/23 08:10:07;;;;;;;10.68;5.20;;;;;;;;;;5077112;28;20030;-40
2021/08/23 08:12:32;;;;;;;6.07;4.82;;;;;;;;;;5072939;28;20514;-40
2021/08/23 08:14:59;;;;;;;10.55;4.60;;;;;;;;;;5073988;28;20021;-42
2021/08/23 08:17:24;;;;;;;7.63;5.10;;;;;;;;;;5077291;28;20095;-41
2021/08/23 08:19:49;;;;;;;10.57;4.85;;;;;;;;;;5072332;28;20123;-41
2021/08/23 08:22:15;;;;;;;6.25;3.92;;;;;;;;;;5067807;28;20021;-42
2021/08/23 08:24:41;;;;;;;7.32;5.15;;;;;;;;;;5071102;28;20065;-46
2021/08/23 08:27:06;;;;;;;6.13;4.63;;;;;;;;;;5072714;28;20035;-43
2021/08/23 08:29:32;;;;;;;12.65;6.15;;;;;;;;;;5068666;28;20020;-40
2021/08/23 08:31:58;;;;;;;9.95;4.85;;;;;;;;;;5072364;28;20543;-40
2021/08/23 08:34:23;;;;;;;5.55;4.45;;;;;;;;;;5073814;28;20111;-40
2021/08/23 08:36:48;;;;;;;11.43;5.47;;;;;;;;;;5072762;28;20028;-40
2021/08/23 08:39:14;;;;;;;6.43;4.82;;;;;;;;;;5074685;28;20044;-39
2021/08/23 08:41:39;;;;;;;6.88;3.78;;;;;;;;;;5072303;28;20095;-40
2021/08/23 08:44:04;;;;;;;4.82;4.10;;;;;;;;;;5074006;28;20464;-41
2021/08/23 08:46:32;;;;;;;23.88;6.55;;;;;;;;;;5070241;28;20020;-40
2021/08/23 08:48:58;;;;;;;8.85;5.95;;;;;;;;;;5073068;28;20032;-40
2021/08/23 08:51:23;;;;;;;11.90;4.70;;;;;;;;;;5079570;28;20029;-44
2021/08/23 08:53:48;;;;;;;5.05;3.25;;;;;;;;;;5073644;28;20444;-43
2021/08/23 08:56:14;;;;;;;7.25;4.65;;;;;;;;;;5073358;28;20361;-41
2021/08/23 08:58:39;;;;;;;12.40;5.20;;;;;;;;;;5074197;28;20074;-42
2021/08/23 09:01:06;;;;;;;8.05;4.20;;;;;;;;;;5079093;28;20055;-45
2021/08/23 09:03:31;;;;;;;10.15;5.78;;;;;;;;;;5074068;28;20452;-41
2021/08/23 09:06:04;;;;;;;10.93;5.05;;;;;;;;;;5072988;28;20091;-41
2021/08/23 09:08:30;;;;;;;14.95;5.22;;;;;;;;;;5072763;28;20509;-42
2021/08/23 09:10:56;;;;;;;12.52;4.95;;;;;;;;;;5073903;28;20016;-40
2021/08/23 09:13:22;;;;;;;9.13;4.90;;;;;;;;;;5070577;28;20023;-40
2021/08/23 09:15:54;;;;;;;8.05;3.72;;;;;;;;;;5075046;28;20028;-40
2021/08/23 09:18:20;;;;;;;7.47;3.72;;;;;;;;;;5072885;28;20507;-39
2021/08/23 09:20:55;;;;;;;11.95;4.20;;;;;;;;;;5069096;28;20020;-41
2021/08/23 09:23:20;;;;;;;6.22;3.63;;;;;;;;;;5075109;28;20091;-40
2021/08/23 09:25:45;;;;;;;14.73;4.55;;;;;;;;;;5073392;28;20170;-40
2021/08/23 09:28:11;;;;;;;11.63;4.40;;;;;;;;;;5075005;28;20021;-41
2021/08/23 09:30:37;;;;;;;14.65;4.72;;;;;;;;;;5065911;28;20036;-40
2021/08/23 09:33:03;;;;;;;7.68;4.18;;;;;;;;;;5069418;28;20020;-40
2021/08/23 09:35:30;;;;;;;4.22;3.28;;;;;;;;;;5070591;28;20120;-43
2021/08/23 09:37:56;;;;;;;5.28;3.35;;;;;;;;;;5067807;28;20020;-41
2021/08/23 09:40:27;;;;;;;7.60;4.50;;;;;;;;;;5068234;28;20031;-41
2021/08/23 09:42:56;;;;;;;5.47;3.35;;;;;;;;;;5071331;28;20035;-42
2021/08/23 09:45:21;;;;;;;4.90;3.05;;;;;;;;;;5073373;28;20020;-44
2021/08/23 09:47:46;;;;;;;8.02;3.47;;;;;;;;;;5068577;28;20029;-43
2021/08/23 09:50:15;;;;;;;8.88;4.65;;;;;;;;;;5075414;28;20714;-37
2021/08/23 09:52:41;;;;;;;8.55;4.50;;;;;;;;;;5070033;28;20455;-37
2021/08/23 09:55:08;;;;;;;12.27;4.35;;;;;;;;;;5067889;28;20025;-37
2021/08/23 09:57:34;;;;;;;5.80;4.13;;;;;;;;;;5069214;28;20085;-37
2021/08/23 09:59:59;;;;;;;6.63;4.03;;;;;;;;;;5070307;28;20024;-37
2021/08/23 10:02:26;;;;;;;11.45;4.90;;;;;;;;;;5072272;28;20063;-37
2021/08/23 10:04:51;;;;;;;7.78;3.65;;;;;;;;;;5070658;28;20081;-38
2021/08/23 10:07:16;;;;;;;8.27;3.95;;;;;;;;;;5069267;28;20471;-45
2021/08/23 10:09:43;;;;;;;15.68;4.10;;;;;;;;;;5065529;28;20024;-41
2021/08/23 10:12:12;;;;;;;8.77;5.00;;;;;;;;;;5069849;28;20589;-39
2021/08/23 10:14:37;;;;;;;7.40;3.92;;;;;;;;;;5071291;28;20050;-41
2021/08/23 10:17:03;;;;;;;12.90;4.93;;;;;;;;;;5071724;28;20531;-40
2021/08/23 10:19:29;;;;;;;7.93;3.60;;;;;;;;;;5071792;28;20056;-40
2021/08/23 10:21:54;;;;;;;10.73;4.93;;;;;;;;;;5067063;28;20021;-41
2021/08/23 10:24:24;;;;;;;10.80;5.22;;;;;;;;;;5072037;28;20028;-43
2021/08/23 10:26:50;;;;;;;11.48;3.85;;;;;;;;;;5067178;28;20024;-41
2021/08/23 10:29:16;;;;;;;5.75;3.05;;;;;;;;;;5070865;28;20035;-41
2021/08/23 10:31:42;;;;;;;14.98;4.47;;;;;;;;;;5070619;28;20560;-38
2021/08/23 10:34:11;;;;;;;8.55;5.95;;;;;;;;;;5069015;28;20043;-38
2021/08/23 10:36:37;;;;;;;6.05;3.70;;;;;;;;;;5065973;28;20451;-42
2021/08/23 10:39:03;;;;;;;5.75;4.10;;;;;;;;;;5070895;28;20020;-39
2021/08/23 10:41:28;;;;;;;6.35;3.17;;;;;;;;;;5071749;28;20501;-42
2021/08/23 10:43:56;;;;;;;14.60;4.15;;;;;;;;;;5070501;28;20025;-40
2021/08/23 10:46:28;;;;;;;3.95;3.08;;;;;;;;;;5074770;28;20043;-42
2021/08/23 10:48:54;;;;;;;16.45;5.47;;;;;;;;;;5067531;28;20031;-40
2021/08/23 10:51:26;;;;;;;6.30;3.78;;;;;;;;;;5066918;28;20650;-39
2021/08/23 10:53:51;;;;;;;7.25;3.47;;;;;;;;;;5066505;28;20036;-42
2021/08/23 10:56:18;;;;;;;6.18;3.28;;;;;;;;;;5070738;28;20036;-41
2021/08/23 10:58:44;;;;;;;7.95;4.82;;;;;;;;;;5075613;28;20017;-39
2021/08/23 11:01:21;;;;;;;6.53;3.42;;;;;;;;;;5076478;28;20131;-40
2021/08/23 11:03:58;;;;;;;8.15;3.65;;;;;;;;;;5076455;28;20063;-41
2021/08/23 11:06:23;;;;;;;9.38;3.03;;;;;;;;;;5075162;28;20410;-40
2021/08/23 11:08:48;;;;;;;15.68;3.80;;;;;;;;;;5078376;28;20050;-40
2021/08/23 11:11:14;;;;;;;6.20;4.18;;;;;;;;;;5072336;28;20023;-40
2021/08/23 11:13:43;;;;;;;7.22;4.03;;;;;;;;;;5073283;28;20406;-41
2021/08/23 11:16:08;;;;;;;13.02;3.50;;;;;;;;;;5073867;28;20024;-42
2021/08/23 11:18:41;;;;;;;6.78;3.13;;;;;;;;;;5073688;28;20031;-40
2021/08/23 11:21:06;;;;;;;11.45;5.43;;;;;;;;;;5072679;28;20020;-44
2021/08/23 11:23:31;;;;;;;12.23;5.93;;;;;;;;;;5076557;28;20028;-41
2021/08/23 11:26:01;;;;;;;45.53;17.73;;;;;;;;;;5074593;28;20362;-41
2021/08/23 11:28:30;;;;;;;7.10;4.20;;;;;;;;;;5068579;28;20528;-41
2021/08/23 11:30:56;;;;;;;7.97;5.00;;;;;;;;;;5074311;28;20029;-41
2021/08/23 11:33:24;;;;;;;5.18;3.38;;;;;;;;;;5072714;28;20012;-40
2021/08/23 11:35:50;;;;;;;11.23;3.53;;;;;;;;;;5076238;28;20039;-40
2021/08/23 11:38:15;;;;;;;7.13;4.15;;;;;;;;;;5075742;28;20016;-40
2021/08/23 11:40:41;;;;;;;8.88;3.20;;;;;;;;;;5073800;28;20020;-41
2021/08/23 11:43:07;;;;;;;6.10;4.07;;;;;;;;;;5079608;28;20021;-40
2021/08/23 11:45:36;;;;;;;8.07;4.50;;;;;;;;;;5077090;28;20531;-46
2021/08/23 11:48:02;;;;;;;7.88;3.20;;;;;;;;;;5076444;28;20498;-42
2021/08/23 11:50:28;;;;;;;4.28;2.15;;;;;;;;;;5076376;28;20024;-41
2021/08/23 11:53:02;;;;;;;9.52;3.17;;;;;;;;;;5078220;28;20020;-41
2021/08/23 11:55:31;;;;;;;6.63;3.53;;;;;;;;;;5072056;28;20024;-44
2021/08/23 11:57:57;;;;;;;7.38;3.33;;;;;;;;;;5069385;28;20012;-43
2021/08/23 12:00:23;;;;;;;10.05;3.08;;;;;;;;;;5077200;28;20021;-42
2021/08/23 12:02:48;;;;;;;8.07;3.53;;;;;;;;;;5074547;28;20052;-39
2021/08/23 12:05:14;;;;;;;16.40;4.15;;;;;;;;;;5074564;28;20024;-44
2021/08/23 12:07:44;;;;;;;16.02;5.68;;;;;;;;;;5076803;28;20462;-40
2021/08/23 12:10:20;;;;;;;7.25;3.90;;;;;;;;;;5077896;28;20032;-43
2021/08/23 12:12:45;;;;;;;5.22;2.75;;;;;;;;;;5077019;28;20074;-40
2021/08/23 12:15:11;;;;;;;8.40;4.03;;;;;;;;;;5074277;28;20032;-43
2021/08/23 12:17:36;;;;;;;6.07;3.83;;;;;;;;;;5076750;28;20430;-42
2021/08/23 12:20:05;;;;;;;5.43;2.30;;;;;;;;;;5074993;28;20024;-38
2021/08/23 12:22:30;;;;;;;6.63;3.20;;;;;;;;;;5079518;28;20020;-39
2021/08/23 12:24:57;;;;;;;5.32;2.50;;;;;;;;;;5075661;28;20031;-40
2021/08/23 12:27:23;;;;;;;4.32;3.00;;;;;;;;;;5077263;28;20028;-36
2021/08/23 12:29:48;;;;;;;5.63;4.07;;;;;;;;;;5074554;28;20064;-38
2021/08/23 12:32:14;;;;;;;8.63;3.92;;;;;;;;;;5076696;28;20020;-38
2021/08/23 12:34:51;;;;;;;6.22;3.28;;;;;;;;;;5074225;28;20036;-38
2021/08/23 12:37:19;;;;;;;5.30;3.05;;;;;;;;;;5070745;28;20017;-39
2021/08/23 12:39:44;;;;;;;2.92;2.15;;;;;;;;;;5071501;28;20040;-39
2021/08/23 12:42:10;;;;;;;5.30;2.75;;;;;;;;;;5074391;28;20048;-39
2021/08/23 12:44:35;;;;;;;3.80;2.83;;;;;;;;;;5076626;28;20124;-39
2021/08/23 12:47:01;;;;;;;13.82;3.75;;;;;;;;;;5078722;28;20107;-39
2021/08/23 12:49:26;;;;;;;4.80;2.88;;;;;;;;;;5073886;28;20043;-39
2021/08/23 12:51:52;;;;;;;14.23;3.45;;;;;;;;;;5074798;28;20035;-39
2021/08/23 12:54:18;;;;;;;4.97;2.60;;;;;;;;;;5073060;28;20024;-41
2021/08/23 12:56:43;;;;;;;9.32;2.92;;;;;;;;;;5073985;28;20033;-40
2021/08/23 12:59:08;;;;;;;4.30;2.85;;;;;;;;;;5078156;28;20020;-40
2021/08/23 13:01:35;;;;;;;4.28;3.35;;;;;;;;;;5075414;28;20467;-40
2021/08/23 13:04:00;;;;;;;13.05;4.47;;;;;;;;;;5076703;28;20052;-39
2021/08/23 13:06:26;;;;;;;6.25;3.35;;;;;;;;;;5075420;28;20043;-41
2021/08/23 13:08:52;;;;;;;11.85;4.05;;;;;;;;;;5077506;28;20139;-41
2021/08/23 13:11:17;;;;;;;14.40;3.58;;;;;;;;;;5075403;28;20035;-38
2021/08/23 13:13:42;;;;;;;15.18;3.75;;;;;;;;;;5070214;28;20082;-43
2021/08/23 13:16:08;;;;;;;5.25;3.35;;;;;;;;;;5071051;28;20031;-38
2021/08/23 13:18:33;;;;;;;14.13;7.20;;;;;;;;;;5070763;28;20048;-38
2021/08/23 13:21:00;;;;;;;4.85;3.83;;;;;;;;;;5070236;28;20471;-40
2021/08/23 13:23:25;;;;;;;4.32;2.85;;;;;;;;;;5073901;28;20499;-39
2021/08/23 13:25:50;;;;;;;10.38;2.65;;;;;;;;;;5073716;28;20017;-38
2021/08/23 13:28:16;;;;;;;14.38;10.18;;;;;;;;;;5074113;28;20044;-40
2021/08/23 13:30:41;;;;;;;7.63;3.33;;;;;;;;;;5074726;28;20020;-40
2021/08/23 13:33:07;;;;;;;13.02;2.60;;;;;;;;;;5092143;28;20036;-39
2021/08/23 13:35:33;;;;;;;11.65;2.35;;;;;;;;;;5072906;28;20017;-39
2021/08/23 13:37:58;;;;;;;4.70;2.63;;;;;;;;;;5075190;28;20069;-39
2021/08/23 13:40:24;;;;;;;6.20;2.35;;;;;;;;;;5077771;28;20020;-38
2021/08/23 13:42:49;;;;;;;6.70;3.70;;;;;;;;;;5073807;28;20004;-37
2021/08/23 13:45:14;;;;;;;9.05;3.80;;;;;;;;;;5074366;28;20089;-40
2021/08/23 13:47:40;;;;;;;6.55;2.85;;;;;;;;;;5074256;28;20548;-40
2021/08/23 13:50:05;;;;;;;8.23;2.58;;;;;;;;;;5070899;28;20020;-40
2021/08/23 13:52:31;;;;;;;11.80;3.22;;;;;;;;;;5077853;28;20517;-41
2021/08/23 13:54:57;;;;;;;9.75;4.57;;;;;;;;;;5068893;28;20493;-41
2021/08/23 13:57:23;;;;;;;5.60;3.08;;;;;;;;;;5076867;28;20024;-40
2021/08/23 13:59:48;;;;;;;6.78;2.78;;;;;;;;;;5075657;28;20024;-40
2021/08/23 14:02:13;;;;;;;19.20;3.28;;;;;;;;;;5073880;28;20032;-41
2021/08/23 14:04:38;;;;;;;8.77;3.22;;;;;;;;;;5070782;28;20199;-41
2021/08/23 14:07:04;;;;;;;11.18;2.45;;;;;;;;;;5078389;28;20032;-40
2021/08/23 14:09:29;;;;;;;9.20;2.28;;;;;;;;;;5073533;28;20133;-39
2021/08/23 14:11:54;;;;;;;8.88;3.38;;;;;;;;;;5071977;28;20486;-42
2021/08/23 14:14:20;;;;;;;8.68;3.72;;;;;;;;;;5076161;28;20028;-42
2021/08/23 14:16:45;;;;;;;4.22;2.72;;;;;;;;;;5075205;28;20017;-42
2021/08/23 14:19:10;;;;;;;6.30;2.75;;;;;;;;;;5078643;28;20419;-40
2021/08/23 14:21:36;;;;;;;4.55;3.63;;;;;;;;;;5071359;28;20055;-44
2021/08/23 14:24:01;;;;;;;4.00;2.60;;;;;;;;;;5069023;28;20043;-41
2021/08/23 14:26:27;;;;;;;5.40;3.25;;;;;;;;;;5074053;28;20388;-44
2021/08/23 14:28:52;;;;;;;10.40;5.15;;;;;;;;;;5072934;28;20626;-46
2021/08/23 14:31:17;;;;;;;7.25;2.85;;;;;;;;;;5073675;28;20078;-41
2021/08/23 14:33:43;;;;;;;3.92;2.28;;;;;;;;;;5076767;28;20028;-46